sensor_id;sensor_type;location;lat;lon;timestamp;P1;durP1;ratioP1;P2;durP2;ratioP2
7517;SDS011;3800;48.922;9.444;2023-04-04T00:00:16;3.73;;;2.50;;
7517;SDS011;3800;48.922;9.444;2023-04-04T00:02:45;4.40;;;2.87;;
7517;SDS011;3800;48.922;9.444;2023-04-04T00:05:14;3.50;;;2.70;;
7517;SDS011;3800;48.922;9.444;2023-04-04T00:07:44;2.87;;;2.50;;
7517;SDS011;3800;48.922;9.444;2023-04-04T00:10:12;4.50;;;2.87;;
7517;SDS011;3800;48.922;9.444;2023-04-04T00:12:41;2.70;;;2.33;;
7517;SDS011;3800;48.922;9.444;2023-04-04T00:15:09;2.90;;;2.50;;
7517;SDS011;3800;48.922;9.444;2023-04-04T00:17:37;2.60;;;2.40;;
7517;SDS011;3800;48.922;9.444;2023-04-04T00:20:06;3.07;;;2.80;;
7517;SDS011;3800;48.922;9.444;2023-04-04T00:22:35;3.73;;;2.50;;
7517;SDS011;3800;48.922;9.444;2023-04-04T00:25:03;2.97;;;2.67;;
7517;SDS011;3800;48.922;9.444;2023-04-04T00:27:31;4.90;;;2.70;;
7517;SDS011;3800;48.922;9.444;2023-04-04T00:30:00;2.90;;;2.50;;
7517;SDS011;3800;48.922;9.444;2023-04-04T00:32:28;3.03;;;2.30;;
7517;SDS011;3800;48.922;9.444;2023-04-04T00:34:56;3.07;;;2.43;;
7517;SDS011;3800;48.922;9.444;2023-04-04T00:37:24;3.07;;;2.50;;
7517;SDS011;3800;48.922;9.444;2023-04-04T00:39:53;2.83;;;2.50;;
7517;SDS011;3800;48.922;9.444;2023-04-04T00:42:22;4.10;;;3.00;;
7517;SDS011;3800;48.922;9.444;2023-04-04T00:44:50;3.00;;;2.70;;
7517;SDS011;3800;48.922;9.444;2023-04-04T00:47:21;3.83;;;2.43;;
7517;SDS011;3800;48.922;9.444;2023-04-04T00:49:49;3.77;;;2.50;;
7517;SDS011;3800;48.922;9.444;2023-04-04T00:52:17;2.43;;;2.23;;
7517;SDS011;3800;48.922;9.444;2023-04-04T00:54:45;2.93;;;2.60;;
7517;SDS011;3800;48.922;9.444;2023-04-04T00:57:14;3.47;;;2.50;;
7517;SDS011;3800;48.922;9.444;2023-04-04T00:59:42;2.73;;;2.27;;
7517;SDS011;3800;48.922;9.444;2023-04-04T01:02:10;2.60;;;2.40;;
7517;SDS011;3800;48.922;9.444;2023-04-04T01:04:38;2.70;;;2.50;;
7517;SDS011;3800;48.922;9.444;2023-04-04T01:07:07;3.63;;;2.60;;
7517;SDS011;3800;48.922;9.444;2023-04-04T01:09:35;3.33;;;2.47;;
7517;SDS011;3800;48.922;9.444;2023-04-04T01:12:04;3.60;;;2.40;;
7517;SDS011;3800;48.922;9.444;2023-04-04T01:14:33;3.10;;;2.80;;
7517;SDS011;3800;48.922;9.444;2023-04-04T01:17:01;3.53;;;2.87;;
7517;SDS011;3800;48.922;9.444;2023-04-04T01:19:31;2.97;;;2.70;;
7517;SDS011;3800;48.922;9.444;2023-04-04T01:21:58;4.00;;;2.63;;
7517;SDS011;3800;48.922;9.444;2023-04-04T01:24:27;3.03;;;2.70;;
7517;SDS011;3800;48.922;9.444;2023-04-04T01:26:55;3.00;;;2.70;;
7517;SDS011;3800;48.922;9.444;2023-04-04T01:29:23;4.80;;;2.70;;
7517;SDS011;3800;48.922;9.444;2023-04-04T01:31:55;4.73;;;2.70;;
7517;SDS011;3800;48.922;9.444;2023-04-04T01:34:27;4.27;;;2.70;;
7517;SDS011;3800;48.922;9.444;2023-04-04T01:37:30;3.07;;;2.80;;
7517;SDS011;3800;48.922;9.444;2023-04-04T01:40:11;3.10;;;2.80;;
7517;SDS011;3800;48.922;9.444;2023-04-04T01:42:54;3.83;;;2.60;;
7517;SDS011;3800;48.922;9.444;2023-04-04T01:45:22;5.87;;;3.20;;
7517;SDS011;3800;48.922;9.444;2023-04-04T01:47:51;3.83;;;3.10;;
7517;SDS011;3800;48.922;9.444;2023-04-04T01:50:19;4.33;;;3.00;;
7517;SDS011;3800;48.922;9.444;2023-04-04T01:52:48;2.87;;;2.60;;
7517;SDS011;3800;48.922;9.444;2023-04-04T01:55:17;3.43;;;2.83;;
7517;SDS011;3800;48.922;9.444;2023-04-04T01:57:46;3.10;;;2.70;;
7517;SDS011;3800;48.922;9.444;2023-04-04T02:03:12;4.43;;;2.70;;
7517;SDS011;3800;48.922;9.444;2023-04-04T02:05:41;4.13;;;3.00;;
7517;SDS011;3800;48.922;9.444;2023-04-04T02:08:09;3.20;;;2.90;;
7517;SDS011;3800;48.922;9.444;2023-04-04T02:10:37;3.57;;;2.83;;
7517;SDS011;3800;48.922;9.444;2023-04-04T02:13:05;3.77;;;2.63;;
7517;SDS011;3800;48.922;9.444;2023-04-04T02:15:34;4.67;;;3.00;;
7517;SDS011;3800;48.922;9.444;2023-04-04T02:18:02;4.50;;;3.00;;
7517;SDS011;3800;48.922;9.444;2023-04-04T02:20:30;3.87;;;3.13;;
7517;SDS011;3800;48.922;9.444;2023-04-04T02:22:59;3.57;;;2.90;;
7517;SDS011;3800;48.922;9.444;2023-04-04T02:25:28;4.70;;;2.97;;
7517;SDS011;3800;48.922;9.444;2023-04-04T02:27:57;4.37;;;3.60;;
7517;SDS011;3800;48.922;9.444;2023-04-04T02:30:25;3.77;;;3.23;;
7517;SDS011;3800;48.922;9.444;2023-04-04T02:32:56;3.60;;;3.30;;
7517;SDS011;3800;48.922;9.444;2023-04-04T02:35:24;5.70;;;3.10;;
7517;SDS011;3800;48.922;9.444;2023-04-04T02:37:53;4.93;;;2.90;;
7517;SDS011;3800;48.922;9.444;2023-04-04T02:40:21;3.47;;;2.90;;
7517;SDS011;3800;48.922;9.444;2023-04-04T02:42:50;3.40;;;2.80;;
7517;SDS011;3800;48.922;9.444;2023-04-04T02:45:18;3.23;;;2.93;;
7517;SDS011;3800;48.922;9.444;2023-04-04T02:47:49;5.23;;;4.00;;
7517;SDS011;3800;48.922;9.444;2023-04-04T02:50:16;5.57;;;3.87;;
7517;SDS011;3800;48.922;9.444;2023-04-04T02:52:45;3.53;;;3.13;;
7517;SDS011;3800;48.922;9.444;2023-04-04T02:55:15;4.30;;;3.40;;
7517;SDS011;3800;48.922;9.444;2023-04-04T02:57:49;4.60;;;3.27;;
7517;SDS011;3800;48.922;9.444;2023-04-04T03:00:12;3.73;;;3.13;;
7517;SDS011;3800;48.922;9.444;2023-04-04T03:02:40;3.63;;;3.13;;
7517;SDS011;3800;48.922;9.444;2023-04-04T03:05:09;4.30;;;3.40;;
7517;SDS011;3800;48.922;9.444;2023-04-04T03:07:38;4.53;;;3.40;;
7517;SDS011;3800;48.922;9.444;2023-04-04T03:10:07;4.30;;;3.20;;
7517;SDS011;3800;48.922;9.444;2023-04-04T03:12:36;4.93;;;3.70;;
7517;SDS011;3800;48.922;9.444;2023-04-04T03:15:04;3.93;;;3.53;;
7517;SDS011;3800;48.922;9.444;2023-04-04T03:17:33;4.73;;;3.40;;
7517;SDS011;3800;48.922;9.444;2023-04-04T03:20:01;4.93;;;3.30;;
7517;SDS011;3800;48.922;9.444;2023-04-04T03:22:29;6.37;;;4.00;;
7517;SDS011;3800;48.922;9.444;2023-04-04T03:24:58;4.53;;;3.20;;
7517;SDS011;3800;48.922;9.444;2023-04-04T03:27:26;4.53;;;3.60;;
7517;SDS011;3800;48.922;9.444;2023-04-04T03:29:55;6.10;;;3.73;;
7517;SDS011;3800;48.922;9.444;2023-04-04T03:32:24;7.27;;;3.87;;
7517;SDS011;3800;48.922;9.444;2023-04-04T03:34:52;6.33;;;3.40;;
7517;SDS011;3800;48.922;9.444;2023-04-04T03:37:20;5.43;;;3.47;;
7517;SDS011;3800;48.922;9.444;2023-04-04T03:39:49;3.93;;;3.40;;
7517;SDS011;3800;48.922;9.444;2023-04-04T03:42:17;6.43;;;3.60;;
7517;SDS011;3800;48.922;9.444;2023-04-04T03:44:45;4.03;;;3.63;;
7517;SDS011;3800;48.922;9.444;2023-04-04T03:47:14;3.67;;;3.33;;
7517;SDS011;3800;48.922;9.444;2023-04-04T03:49:42;6.57;;;4.20;;
7517;SDS011;3800;48.922;9.444;2023-04-04T03:52:11;5.13;;;3.60;;
7517;SDS011;3800;48.922;9.444;2023-04-04T03:54:39;4.37;;;3.47;;
7517;SDS011;3800;48.922;9.444;2023-04-04T03:57:07;4.60;;;3.27;;
7517;SDS011;3800;48.922;9.444;2023-04-04T03:59:35;4.20;;;3.30;;
7517;SDS011;3800;48.922;9.444;2023-04-04T04:02:04;4.07;;;3.53;;
7517;SDS011;3800;48.922;9.444;2023-04-04T04:04:33;5.73;;;3.57;;
7517;SDS011;3800;48.922;9.444;2023-04-04T04:07:02;4.77;;;3.43;;
7517;SDS011;3800;48.922;9.444;2023-04-04T04:09:30;4.57;;;3.47;;
7517;SDS011;3800;48.922;9.444;2023-04-04T04:11:58;4.30;;;3.47;;
7517;SDS011;3800;48.922;9.444;2023-04-04T04:14:26;5.63;;;3.50;;
7517;SDS011;3800;48.922;9.444;2023-04-04T04:16:55;4.33;;;3.47;;
7517;SDS011;3800;48.922;9.444;2023-04-04T04:19:23;5.70;;;3.53;;
7517;SDS011;3800;48.922;9.444;2023-04-04T04:21:52;4.27;;;3.43;;
7517;SDS011;3800;48.922;9.444;2023-04-04T04:24:20;4.20;;;3.30;;
7517;SDS011;3800;48.922;9.444;2023-04-04T04:26:48;3.60;;;3.30;;
7517;SDS011;3800;48.922;9.444;2023-04-04T04:29:17;3.43;;;3.13;;
7517;SDS011;3800;48.922;9.444;2023-04-04T04:31:45;3.83;;;3.20;;
7517;SDS011;3800;48.922;9.444;2023-04-04T04:34:14;4.70;;;3.50;;
7517;SDS011;3800;48.922;9.444;2023-04-04T04:36:42;6.37;;;3.30;;
7517;SDS011;3800;48.922;9.444;2023-04-04T04:39:11;4.00;;;3.10;;
7517;SDS011;3800;48.922;9.444;2023-04-04T04:41:39;4.67;;;3.00;;
7517;SDS011;3800;48.922;9.444;2023-04-04T04:44:08;4.70;;;3.43;;
7517;SDS011;3800;48.922;9.444;2023-04-04T04:46:36;3.60;;;3.30;;
7517;SDS011;3800;48.922;9.444;2023-04-04T04:49:04;3.40;;;3.10;;
7517;SDS011;3800;48.922;9.444;2023-04-04T04:51:32;4.20;;;3.50;;
7517;SDS011;3800;48.922;9.444;2023-04-04T04:54:01;5.37;;;3.37;;
7517;SDS011;3800;48.922;9.444;2023-04-04T04:56:29;3.63;;;3.30;;
7517;SDS011;3800;48.922;9.444;2023-04-04T04:58:57;4.13;;;3.10;;
7517;SDS011;3800;48.922;9.444;2023-04-04T05:01:25;3.50;;;3.20;;
7517;SDS011;3800;48.922;9.444;2023-04-04T05:03:54;3.90;;;3.47;;
7517;SDS011;3800;48.922;9.444;2023-04-04T05:06:22;4.47;;;3.50;;
7517;SDS011;3800;48.922;9.444;2023-04-04T05:08:51;4.67;;;4.00;;
7517;SDS011;3800;48.922;9.444;2023-04-04T05:11:20;5.00;;;3.73;;
7517;SDS011;3800;48.922;9.444;2023-04-04T05:13:48;4.93;;;3.80;;
7517;SDS011;3800;48.922;9.444;2023-04-04T05:16:16;4.40;;;3.47;;
7517;SDS011;3800;48.922;9.444;2023-04-04T05:18:44;4.53;;;3.90;;
7517;SDS011;3800;48.922;9.444;2023-04-04T05:21:14;3.87;;;3.47;;
7517;SDS011;3800;48.922;9.444;2023-04-04T05:23:42;4.70;;;3.50;;
7517;SDS011;3800;48.922;9.444;2023-04-04T05:26:10;5.80;;;3.70;;
7517;SDS011;3800;48.922;9.444;2023-04-04T05:28:38;3.53;;;3.20;;
7517;SDS011;3800;48.922;9.444;2023-04-04T05:31:07;4.23;;;3.60;;
7517;SDS011;3800;48.922;9.444;2023-04-04T05:33:36;4.77;;;3.67;;
7517;SDS011;3800;48.922;9.444;2023-04-04T05:36:05;5.53;;;4.40;;
7517;SDS011;3800;48.922;9.444;2023-04-04T05:38:33;4.30;;;3.87;;
7517;SDS011;3800;48.922;9.444;2023-04-04T05:41:02;5.80;;;4.20;;
7517;SDS011;3800;48.922;9.444;2023-04-04T05:43:30;4.60;;;4.10;;
7517;SDS011;3800;48.922;9.444;2023-04-04T05:45:59;7.93;;;3.87;;
7517;SDS011;3800;48.922;9.444;2023-04-04T05:48:27;4.20;;;3.67;;
7517;SDS011;3800;48.922;9.444;2023-04-04T05:50:58;4.97;;;3.90;;
7517;SDS011;3800;48.922;9.444;2023-04-04T05:53:26;5.07;;;3.50;;
7517;SDS011;3800;48.922;9.444;2023-04-04T05:55:55;6.63;;;4.07;;
7517;SDS011;3800;48.922;9.444;2023-04-04T05:58:24;4.00;;;3.60;;
7517;SDS011;3800;48.922;9.444;2023-04-04T06:00:52;3.70;;;3.40;;
7517;SDS011;3800;48.922;9.444;2023-04-04T06:03:20;4.97;;;3.50;;
7517;SDS011;3800;48.922;9.444;2023-04-04T06:05:49;4.50;;;3.43;;
7517;SDS011;3800;48.922;9.444;2023-04-04T06:08:17;3.73;;;3.43;;
7517;SDS011;3800;48.922;9.444;2023-04-04T06:10:46;4.30;;;3.93;;
7517;SDS011;3800;48.922;9.444;2023-04-04T06:13:14;3.77;;;3.17;;
7517;SDS011;3800;48.922;9.444;2023-04-04T06:15:42;4.80;;;3.70;;
7517;SDS011;3800;48.922;9.444;2023-04-04T06:18:11;6.83;;;4.00;;
7517;SDS011;3800;48.922;9.444;2023-04-04T06:20:40;5.27;;;4.00;;
7517;SDS011;3800;48.922;9.444;2023-04-04T06:23:08;6.03;;;4.07;;
7517;SDS011;3800;48.922;9.444;2023-04-04T06:25:37;4.87;;;4.13;;
7517;SDS011;3800;48.922;9.444;2023-04-04T06:28:05;4.37;;;3.70;;
7517;SDS011;3800;48.922;9.444;2023-04-04T06:30:35;6.30;;;3.90;;
7517;SDS011;3800;48.922;9.444;2023-04-04T06:33:03;5.10;;;4.23;;
7517;SDS011;3800;48.922;9.444;2023-04-04T06:35:31;4.00;;;3.60;;
7517;SDS011;3800;48.922;9.444;2023-04-04T06:38:00;6.10;;;3.50;;
7517;SDS011;3800;48.922;9.444;2023-04-04T06:40:28;5.80;;;3.70;;
7517;SDS011;3800;48.922;9.444;2023-04-04T06:42:56;4.20;;;3.70;;
7517;SDS011;3800;48.922;9.444;2023-04-04T06:45:24;3.53;;;3.23;;
7517;SDS011;3800;48.922;9.444;2023-04-04T06:47:54;4.00;;;3.60;;
7517;SDS011;3800;48.922;9.444;2023-04-04T06:50:22;4.23;;;3.60;;
7517;SDS011;3800;48.922;9.444;2023-04-04T06:52:51;5.30;;;3.90;;
7517;SDS011;3800;48.922;9.444;2023-04-04T06:55:19;4.63;;;3.50;;
7517;SDS011;3800;48.922;9.444;2023-04-04T06:57:48;6.47;;;4.23;;
7517;SDS011;3800;48.922;9.444;2023-04-04T07:00:16;3.73;;;3.43;;
7517;SDS011;3800;48.922;9.444;2023-04-04T07:02:46;4.40;;;3.90;;
7517;SDS011;3800;48.922;9.444;2023-04-04T07:05:14;4.83;;;4.10;;
7517;SDS011;3800;48.922;9.444;2023-04-04T07:07:43;5.40;;;4.17;;
7517;SDS011;3800;48.922;9.444;2023-04-04T07:10:10;4.03;;;3.43;;
7517;SDS011;3800;48.922;9.444;2023-04-04T07:12:39;3.70;;;3.30;;
7517;SDS011;3800;48.922;9.444;2023-04-04T07:15:07;7.30;;;3.67;;
7517;SDS011;3800;48.922;9.444;2023-04-04T07:17:37;4.67;;;3.50;;
7517;SDS011;3800;48.922;9.444;2023-04-04T07:20:05;4.40;;;3.30;;
7517;SDS011;3800;48.922;9.444;2023-04-04T07:22:37;4.60;;;3.20;;
7517;SDS011;3800;48.922;9.444;2023-04-04T07:25:05;3.93;;;3.57;;
7517;SDS011;3800;48.922;9.444;2023-04-04T07:27:35;5.07;;;3.40;;
7517;SDS011;3800;48.922;9.444;2023-04-04T07:30:03;3.80;;;3.20;;
7517;SDS011;3800;48.922;9.444;2023-04-04T07:32:32;4.10;;;3.53;;
7517;SDS011;3800;48.922;9.444;2023-04-04T07:35:00;4.97;;;3.43;;
7517;SDS011;3800;48.922;9.444;2023-04-04T07:37:29;3.43;;;3.10;;
7517;SDS011;3800;48.922;9.444;2023-04-04T07:39:57;5.10;;;3.07;;
7517;SDS011;3800;48.922;9.444;2023-04-04T07:42:25;3.67;;;3.30;;
7517;SDS011;3800;48.922;9.444;2023-04-04T07:44:53;5.60;;;3.50;;
7517;SDS011;3800;48.922;9.444;2023-04-04T07:47:22;6.93;;;3.20;;
7517;SDS011;3800;48.922;9.444;2023-04-04T07:49:51;4.77;;;3.00;;
7517;SDS011;3800;48.922;9.444;2023-04-04T07:52:19;4.37;;;2.90;;
7517;SDS011;3800;48.922;9.444;2023-04-04T07:54:47;3.40;;;2.90;;
7517;SDS011;3800;48.922;9.444;2023-04-04T07:57:15;3.57;;;3.17;;
7517;SDS011;3800;48.922;9.444;2023-04-04T07:59:44;3.10;;;2.83;;
7517;SDS011;3800;48.922;9.444;2023-04-04T08:02:13;5.50;;;3.27;;
7517;SDS011;3800;48.922;9.444;2023-04-04T08:04:41;3.83;;;2.83;;
7517;SDS011;3800;48.922;9.444;2023-04-04T08:07:09;4.87;;;2.90;;
7517;SDS011;3800;48.922;9.444;2023-04-04T08:09:38;6.43;;;3.27;;
7517;SDS011;3800;48.922;9.444;2023-04-04T08:12:06;5.20;;;2.90;;
7517;SDS011;3800;48.922;9.444;2023-04-04T08:14:35;5.23;;;2.97;;
7517;SDS011;3800;48.922;9.444;2023-04-04T08:17:03;5.43;;;3.37;;
7517;SDS011;3800;48.922;9.444;2023-04-04T08:19:31;5.37;;;3.40;;
7517;SDS011;3800;48.922;9.444;2023-04-04T08:22:00;7.03;;;3.00;;
7517;SDS011;3800;48.922;9.444;2023-04-04T08:24:29;8.83;;;3.07;;
7517;SDS011;3800;48.922;9.444;2023-04-04T08:26:57;4.40;;;3.00;;
7517;SDS011;3800;48.922;9.444;2023-04-04T08:29:26;3.90;;;2.90;;
7517;SDS011;3800;48.922;9.444;2023-04-04T08:31:54;6.43;;;3.10;;
7517;SDS011;3800;48.922;9.444;2023-04-04T08:34:22;4.13;;;3.20;;
7517;SDS011;3800;48.922;9.444;2023-04-04T08:36:50;4.40;;;2.77;;
7517;SDS011;3800;48.922;9.444;2023-04-04T08:39:19;4.00;;;2.90;;
7517;SDS011;3800;48.922;9.444;2023-04-04T08:41:47;4.97;;;3.03;;
7517;SDS011;3800;48.922;9.444;2023-04-04T08:44:16;3.57;;;2.90;;
7517;SDS011;3800;48.922;9.444;2023-04-04T08:46:44;3.13;;;2.83;;
7517;SDS011;3800;48.922;9.444;2023-04-04T08:49:13;3.67;;;2.80;;
7517;SDS011;3800;48.922;9.444;2023-04-04T08:51:42;3.43;;;2.50;;
7517;SDS011;3800;48.922;9.444;2023-04-04T08:54:10;3.50;;;2.80;;
7517;SDS011;3800;48.922;9.444;2023-04-04T08:56:38;2.97;;;2.50;;
7517;SDS011;3800;48.922;9.444;2023-04-04T08:59:07;3.57;;;2.97;;
7517;SDS011;3800;48.922;9.444;2023-04-04T09:01:35;3.13;;;2.80;;
7517;SDS011;3800;48.922;9.444;2023-04-04T09:04:04;3.13;;;2.80;;
7517;SDS011;3800;48.922;9.444;2023-04-04T09:06:33;4.47;;;3.00;;
7517;SDS011;3800;48.922;9.444;2023-04-04T09:09:02;3.87;;;2.77;;
7517;SDS011;3800;48.922;9.444;2023-04-04T09:11:31;4.23;;;3.07;;
7517;SDS011;3800;48.922;9.444;2023-04-04T09:14:00;4.17;;;3.17;;
7517;SDS011;3800;48.922;9.444;2023-04-04T09:16:28;4.73;;;3.07;;
7517;SDS011;3800;48.922;9.444;2023-04-04T09:18:56;3.80;;;2.93;;
7517;SDS011;3800;48.922;9.444;2023-04-04T09:21:24;5.93;;;3.10;;
7517;SDS011;3800;48.922;9.444;2023-04-04T09:23:57;5.67;;;2.90;;
7517;SDS011;3800;48.922;9.444;2023-04-04T09:26:25;4.03;;;2.60;;
7517;SDS011;3800;48.922;9.444;2023-04-04T09:28:53;3.97;;;2.93;;
7517;SDS011;3800;48.922;9.444;2023-04-04T09:31:21;3.70;;;2.73;;
7517;SDS011;3800;48.922;9.444;2023-04-04T09:33:49;4.13;;;3.17;;
7517;SDS011;3800;48.922;9.444;2023-04-04T09:36:18;4.33;;;2.73;;
7517;SDS011;3800;48.922;9.444;2023-04-04T09:38:46;3.73;;;2.83;;
7517;SDS011;3800;48.922;9.444;2023-04-04T09:41:15;3.20;;;2.77;;
7517;SDS011;3800;48.922;9.444;2023-04-04T09:43:44;4.10;;;3.10;;
7517;SDS011;3800;48.922;9.444;2023-04-04T09:46:12;2.90;;;2.60;;
7517;SDS011;3800;48.922;9.444;2023-04-04T09:48:40;3.83;;;2.70;;
7517;SDS011;3800;48.922;9.444;2023-04-04T09:51:11;4.87;;;2.73;;
7517;SDS011;3800;48.922;9.444;2023-04-04T09:53:37;4.20;;;2.93;;
7517;SDS011;3800;48.922;9.444;2023-04-04T09:56:05;3.47;;;2.50;;
7517;SDS011;3800;48.922;9.444;2023-04-04T09:58:33;4.37;;;2.73;;
7517;SDS011;3800;48.922;9.444;2023-04-04T10:01:02;5.50;;;2.90;;
7517;SDS011;3800;48.922;9.444;2023-04-04T10:03:30;5.13;;;2.90;;
7517;SDS011;3800;48.922;9.444;2023-04-04T10:05:58;4.87;;;3.13;;
7517;SDS011;3800;48.922;9.444;2023-04-04T10:08:27;3.77;;;2.60;;
7517;SDS011;3800;48.922;9.444;2023-04-04T10:10:56;3.20;;;2.73;;
7517;SDS011;3800;48.922;9.444;2023-04-04T10:13:26;3.20;;;2.77;;
7517;SDS011;3800;48.922;9.444;2023-04-04T10:15:55;4.10;;;2.90;;
7517;SDS011;3800;48.922;9.444;2023-04-04T10:18:24;4.77;;;2.93;;
7517;SDS011;3800;48.922;9.444;2023-04-04T10:20:52;4.17;;;2.70;;
7517;SDS011;3800;48.922;9.444;2023-04-04T10:23:21;5.07;;;3.00;;
7517;SDS011;3800;48.922;9.444;2023-04-04T10:25:49;3.87;;;2.70;;
7517;SDS011;3800;48.922;9.444;2023-04-04T10:28:17;4.20;;;2.83;;
7517;SDS011;3800;48.922;9.444;2023-04-04T10:30:49;4.43;;;2.77;;
7517;SDS011;3800;48.922;9.444;2023-04-04T10:33:55;4.03;;;2.70;;
7517;SDS011;3800;48.922;9.444;2023-04-04T10:36:22;5.20;;;2.80;;
7517;SDS011;3800;48.922;9.444;2023-04-04T10:39:22;3.90;;;2.80;;
7517;SDS011;3800;48.922;9.444;2023-04-04T10:41:51;3.30;;;2.60;;
7517;SDS011;3800;48.922;9.444;2023-04-04T10:44:28;2.90;;;2.70;;
7517;SDS011;3800;48.922;9.444;2023-04-04T10:46:58;4.90;;;2.60;;
7517;SDS011;3800;48.922;9.444;2023-04-04T10:49:42;4.73;;;2.73;;
7517;SDS011;3800;48.922;9.444;2023-04-04T10:52:11;3.90;;;2.70;;
7517;SDS011;3800;48.922;9.444;2023-04-04T10:54:41;3.67;;;2.97;;
7517;SDS011;3800;48.922;9.444;2023-04-04T10:57:10;4.20;;;2.90;;
7517;SDS011;3800;48.922;9.444;2023-04-04T11:05:25;4.13;;;2.70;;
7517;SDS011;3800;48.922;9.444;2023-04-04T11:07:55;3.30;;;2.87;;
7517;SDS011;3800;48.922;9.444;2023-04-04T11:10:26;3.00;;;2.63;;
7517;SDS011;3800;48.922;9.444;2023-04-04T11:12:54;3.80;;;3.07;;
7517;SDS011;3800;48.922;9.444;2023-04-04T11:15:23;3.43;;;2.77;;
7517;SDS011;3800;48.922;9.444;2023-04-04T11:17:54;4.00;;;2.80;;
7517;SDS011;3800;48.922;9.444;2023-04-04T11:20:22;3.30;;;2.30;;
7517;SDS011;3800;48.922;9.444;2023-04-04T11:22:50;3.00;;;2.57;;
7517;SDS011;3800;48.922;9.444;2023-04-04T11:25:33;5.87;;;2.80;;
7517;SDS011;3800;48.922;9.444;2023-04-04T11:28:06;3.20;;;2.63;;
7517;SDS011;3800;48.922;9.444;2023-04-04T11:30:36;3.50;;;2.73;;
7517;SDS011;3800;48.922;9.444;2023-04-04T11:33:04;4.33;;;2.90;;
7517;SDS011;3800;48.922;9.444;2023-04-04T11:35:32;3.47;;;2.60;;
7517;SDS011;3800;48.922;9.444;2023-04-04T11:38:00;3.70;;;2.70;;
7517;SDS011;3800;48.922;9.444;2023-04-04T11:40:33;3.47;;;2.67;;
7517;SDS011;3800;48.922;9.444;2023-04-04T11:43:05;3.00;;;2.53;;
7517;SDS011;3800;48.922;9.444;2023-04-04T11:45:33;4.70;;;2.60;;
7517;SDS011;3800;48.922;9.444;2023-04-04T11:48:02;3.17;;;2.83;;
7517;SDS011;3800;48.922;9.444;2023-04-04T11:50:37;3.67;;;2.53;;
7517;SDS011;3800;48.922;9.444;2023-04-04T11:53:06;4.87;;;2.47;;
7517;SDS011;3800;48.922;9.444;2023-04-04T11:55:37;3.10;;;2.67;;
7517;SDS011;3800;48.922;9.444;2023-04-04T11:58:07;4.67;;;2.60;;
7517;SDS011;3800;48.922;9.444;2023-04-04T12:00:37;4.43;;;3.13;;
7517;SDS011;3800;48.922;9.444;2023-04-04T12:03:06;4.43;;;2.87;;
7517;SDS011;3800;48.922;9.444;2023-04-04T12:05:34;6.33;;;2.77;;
7517;SDS011;3800;48.922;9.444;2023-04-04T12:08:03;4.13;;;2.77;;
7517;SDS011;3800;48.922;9.444;2023-04-04T12:10:33;4.03;;;2.70;;
7517;SDS011;3800;48.922;9.444;2023-04-04T12:13:01;2.97;;;2.70;;
7517;SDS011;3800;48.922;9.444;2023-04-04T12:15:35;3.13;;;2.80;;
7517;SDS011;3800;48.922;9.444;2023-04-04T12:18:05;4.00;;;2.87;;
7517;SDS011;3800;48.922;9.444;2023-04-04T12:20:36;2.90;;;2.60;;
7517;SDS011;3800;48.922;9.444;2023-04-04T12:23:04;5.00;;;2.97;;
7517;SDS011;3800;48.922;9.444;2023-04-04T12:25:32;3.53;;;2.73;;
7517;SDS011;3800;48.922;9.444;2023-04-04T12:28:00;2.87;;;2.67;;
7517;SDS011;3800;48.922;9.444;2023-04-04T12:30:29;6.13;;;2.93;;
7517;SDS011;3800;48.922;9.444;2023-04-04T12:32:57;5.13;;;2.90;;
7517;SDS011;3800;48.922;9.444;2023-04-04T12:35:26;3.50;;;2.70;;
7517;SDS011;3800;48.922;9.444;2023-04-04T12:37:56;3.10;;;2.80;;
7517;SDS011;3800;48.922;9.444;2023-04-04T12:40:35;3.63;;;3.30;;
7517;SDS011;3800;48.922;9.444;2023-04-04T12:43:05;3.43;;;2.83;;
7517;SDS011;3800;48.922;9.444;2023-04-04T12:45:35;4.90;;;2.67;;
7517;SDS011;3800;48.922;9.444;2023-04-04T12:48:08;4.83;;;2.97;;
7517;SDS011;3800;48.922;9.444;2023-04-04T12:53:18;4.20;;;3.00;;
7517;SDS011;3800;48.922;9.444;2023-04-04T12:55:48;3.03;;;2.73;;
7517;SDS011;3800;48.922;9.444;2023-04-04T12:58:17;3.90;;;3.03;;
7517;SDS011;3800;48.922;9.444;2023-04-04T13:00:45;2.87;;;2.57;;
7517;SDS011;3800;48.922;9.444;2023-04-04T13:03:14;5.13;;;2.63;;
7517;SDS011;3800;48.922;9.444;2023-04-04T13:05:42;4.00;;;2.87;;
7517;SDS011;3800;48.922;9.444;2023-04-04T13:08:10;2.90;;;2.63;;
7517;SDS011;3800;48.922;9.444;2023-04-04T13:13:30;3.67;;;2.70;;
7517;SDS011;3800;48.922;9.444;2023-04-04T13:15:59;7.30;;;2.93;;
7517;SDS011;3800;48.922;9.444;2023-04-04T13:18:32;8.20;;;3.83;;
7517;SDS011;3800;48.922;9.444;2023-04-04T13:21:00;6.83;;;3.60;;
7517;SDS011;3800;48.922;9.444;2023-04-04T13:23:28;3.67;;;3.20;;
7517;SDS011;3800;48.922;9.444;2023-04-04T13:25:57;4.30;;;2.80;;
7517;SDS011;3800;48.922;9.444;2023-04-04T13:28:25;3.37;;;2.90;;
7517;SDS011;3800;48.922;9.444;2023-04-04T13:30:54;4.33;;;2.67;;
7517;SDS011;3800;48.922;9.444;2023-04-04T13:33:22;7.40;;;3.00;;
7517;SDS011;3800;48.922;9.444;2023-04-04T13:35:50;4.47;;;2.87;;
7517;SDS011;3800;48.922;9.444;2023-04-04T13:38:18;3.90;;;3.20;;
7517;SDS011;3800;48.922;9.444;2023-04-04T13:40:47;5.23;;;2.90;;
7517;SDS011;3800;48.922;9.444;2023-04-04T13:43:15;11.57;;;4.40;;
7517;SDS011;3800;48.922;9.444;2023-04-04T13:45:43;3.50;;;2.80;;
7517;SDS011;3800;48.922;9.444;2023-04-04T13:48:11;4.30;;;2.83;;
7517;SDS011;3800;48.922;9.444;2023-04-04T13:50:40;5.40;;;3.27;;
7517;SDS011;3800;48.922;9.444;2023-04-04T13:53:09;6.83;;;3.37;;
7517;SDS011;3800;48.922;9.444;2023-04-04T13:55:37;3.60;;;3.30;;
7517;SDS011;3800;48.922;9.444;2023-04-04T13:58:05;5.00;;;3.10;;
7517;SDS011;3800;48.922;9.444;2023-04-04T14:00:33;4.20;;;2.77;;
7517;SDS011;3800;48.922;9.444;2023-04-04T14:03:02;5.67;;;3.07;;
7517;SDS011;3800;48.922;9.444;2023-04-04T14:05:32;4.17;;;3.20;;
7517;SDS011;3800;48.922;9.444;2023-04-04T14:08:00;3.87;;;2.90;;
7517;SDS011;3800;48.922;9.444;2023-04-04T14:10:28;4.73;;;3.30;;
7517;SDS011;3800;48.922;9.444;2023-04-04T14:13:00;4.30;;;2.87;;
7517;SDS011;3800;48.922;9.444;2023-04-04T14:15:28;7.83;;;3.50;;
7517;SDS011;3800;48.922;9.444;2023-04-04T14:17:57;4.40;;;3.17;;
7517;SDS011;3800;48.922;9.444;2023-04-04T14:20:25;4.40;;;3.20;;
7517;SDS011;3800;48.922;9.444;2023-04-04T14:22:54;4.83;;;3.17;;
7517;SDS011;3800;48.922;9.444;2023-04-04T14:25:22;7.37;;;3.00;;
7517;SDS011;3800;48.922;9.444;2023-04-04T14:27:50;4.87;;;3.13;;
7517;SDS011;3800;48.922;9.444;2023-04-04T14:30:19;4.27;;;3.17;;
7517;SDS011;3800;48.922;9.444;2023-04-04T14:32:47;4.77;;;3.20;;
7517;SDS011;3800;48.922;9.444;2023-04-04T14:35:16;3.50;;;2.83;;
7517;SDS011;3800;48.922;9.444;2023-04-04T14:37:44;2.73;;;2.47;;
7517;SDS011;3800;48.922;9.444;2023-04-04T14:40:12;4.33;;;2.80;;
7517;SDS011;3800;48.922;9.444;2023-04-04T14:42:41;6.10;;;3.07;;
7517;SDS011;3800;48.922;9.444;2023-04-04T14:45:09;4.43;;;3.30;;
7517;SDS011;3800;48.922;9.444;2023-04-04T14:47:37;5.03;;;3.00;;
7517;SDS011;3800;48.922;9.444;2023-04-04T14:50:06;3.10;;;2.80;;
7517;SDS011;3800;48.922;9.444;2023-04-04T14:52:35;4.80;;;3.30;;
7517;SDS011;3800;48.922;9.444;2023-04-04T14:55:04;3.60;;;3.30;;
7517;SDS011;3800;48.922;9.444;2023-04-04T14:57:34;5.00;;;2.93;;
7517;SDS011;3800;48.922;9.444;2023-04-04T15:00:02;5.20;;;3.63;;
7517;SDS011;3800;48.922;9.444;2023-04-04T15:02:30;6.17;;;3.20;;
7517;SDS011;3800;48.922;9.444;2023-04-04T15:05:00;4.53;;;2.90;;
7517;SDS011;3800;48.922;9.444;2023-04-04T15:07:28;5.60;;;3.50;;
7517;SDS011;3800;48.922;9.444;2023-04-04T15:09:56;4.73;;;3.43;;
7517;SDS011;3800;48.922;9.444;2023-04-04T15:12:24;5.03;;;3.10;;
7517;SDS011;3800;48.922;9.444;2023-04-04T15:14:53;6.30;;;3.07;;
7517;SDS011;3800;48.922;9.444;2023-04-04T15:17:21;4.33;;;3.20;;
7517;SDS011;3800;48.922;9.444;2023-04-04T15:19:49;5.13;;;3.40;;
7517;SDS011;3800;48.922;9.444;2023-04-04T15:22:17;4.37;;;3.20;;
7517;SDS011;3800;48.922;9.444;2023-04-04T15:24:46;5.33;;;3.17;;
7517;SDS011;3800;48.922;9.444;2023-04-04T15:27:14;5.50;;;3.33;;
7517;SDS011;3800;48.922;9.444;2023-04-04T15:29:42;5.33;;;3.30;;
7517;SDS011;3800;48.922;9.444;2023-04-04T15:32:11;5.23;;;3.30;;
7517;SDS011;3800;48.922;9.444;2023-04-04T15:34:39;3.43;;;3.03;;
7517;SDS011;3800;48.922;9.444;2023-04-04T15:37:08;5.00;;;3.17;;
7517;SDS011;3800;48.922;9.444;2023-04-04T15:39:36;3.60;;;3.07;;